sensor_id;sensor_type;location;lat;lon;timestamp;pressure;altitude;pressure_sealevel;temperature;humidity
62333;BME280;48624;49.812;8.562;2023-11-25T00:01:56;99876.44;;;2.04;100.00
62333;BME280;48624;49.812;8.562;2023-11-25T00:04:21;99880.59;;;2.08;98.90
62333;BME280;48624;49.812;8.562;2023-11-25T00:06:46;99883.16;;;2.10;97.69
62333;BME280;48624;49.812;8.562;2023-11-25T00:09:14;99890.84;;;1.92;99.80
62333;BME280;48624;49.812;8.562;2023-11-25T00:11:41;99905.53;;;1.95;99.51
62333;BME280;48624;49.812;8.562;2023-11-25T00:14:07;99896.59;;;2.01;98.83
62333;BME280;48624;49.812;8.562;2023-11-25T00:16:34;99897.72;;;1.95;98.45
62333;BME280;48624;49.812;8.562;2023-11-25T00:18:59;99904.72;;;1.94;98.27
62333;BME280;48624;49.812;8.562;2023-11-25T00:21:24;99926.31;;;1.98;98.03
62333;BME280;48624;49.812;8.562;2023-11-25T00:23:51;99914.91;;;2.01;98.36
62333;BME280;48624;49.812;8.562;2023-11-25T00:26:16;99912.22;;;2.02;98.86
62333;BME280;48624;49.812;8.562;2023-11-25T00:28:41;99932.81;;;1.88;99.19
62333;BME280;48624;49.812;8.562;2023-11-25T00:31:07;99930.44;;;2.04;98.34
62333;BME280;48624;49.812;8.562;2023-11-25T00:33:32;99934.78;;;1.83;98.93
62333;BME280;48624;49.812;8.562;2023-11-25T00:35:58;99942.13;;;1.95;98.87
62333;BME280;48624;49.812;8.562;2023-11-25T00:38:23;99940.09;;;1.79;98.38
62333;BME280;48624;49.812;8.562;2023-11-25T00:40:49;99945.97;;;1.86;98.15
62333;BME280;48624;49.812;8.562;2023-11-25T00:43:14;99937.69;;;1.97;97.82
62333;BME280;48624;49.812;8.562;2023-11-25T00:45:41;99940.78;;;1.85;97.39
62333;BME280;48624;49.812;8.562;2023-11-25T00:48:07;99947.53;;;1.90;97.58
62333;BME280;48624;49.812;8.562;2023-11-25T00:50:32;99939.88;;;1.86;97.64
62333;BME280;48624;49.812;8.562;2023-11-25T00:52:58;99937.84;;;1.70;98.30
62333;BME280;48624;49.812;8.562;2023-11-25T00:55:23;99957.50;;;1.80;97.98
62333;BME280;48624;49.812;8.562;2023-11-25T00:57:49;99962.78;;;1.79;98.15
62333;BME280;48624;49.812;8.562;2023-11-25T01:00:14;99963.28;;;1.66;98.49
62333;BME280;48624;49.812;8.562;2023-11-25T01:02:47;99967.88;;;1.82;98.19
62333;BME280;48624;49.812;8.562;2023-11-25T01:05:13;99970.66;;;1.77;97.85
62333;BME280;48624;49.812;8.562;2023-11-25T01:07:38;99974.16;;;1.78;97.44
62333;BME280;48624;49.812;8.562;2023-11-25T01:10:05;99988.34;;;1.71;97.74
62333;BME280;48624;49.812;8.562;2023-11-25T01:12:31;99981.34;;;1.49;98.83
62333;BME280;48624;49.812;8.562;2023-11-25T01:14:58;99974.41;;;1.70;98.08
62333;BME280;48624;49.812;8.562;2023-11-25T01:17:24;99984.59;;;1.78;97.04
62333;BME280;48624;49.812;8.562;2023-11-25T01:19:51;99991.50;;;1.79;95.98
62333;BME280;48624;49.812;8.562;2023-11-25T01:22:17;99991.50;;;1.79;95.97
62333;BME280;48624;49.812;8.562;2023-11-25T01:24:42;99996.13;;;1.72;96.08
62333;BME280;48624;49.812;8.562;2023-11-25T01:27:08;99996.34;;;1.66;96.25
62333;BME280;48624;49.812;8.562;2023-11-25T01:29:33;100000.97;;;1.59;97.55
62333;BME280;48624;49.812;8.562;2023-11-25T01:32:00;100004.06;;;1.69;96.36
62333;BME280;48624;49.812;8.562;2023-11-25T01:34:25;100014.69;;;1.64;95.81
62333;BME280;48624;49.812;8.562;2023-11-25T01:36:50;100014.28;;;1.51;97.17
62333;BME280;48624;49.812;8.562;2023-11-25T01:39:16;100024.69;;;1.53;97.36
62333;BME280;48624;49.812;8.562;2023-11-25T01:41:42;100017.16;;;1.45;97.38
62333;BME280;48624;49.812;8.562;2023-11-25T01:44:08;100025.94;;;1.43;97.83
62333;BME280;48624;49.812;8.562;2023-11-25T01:46:35;100021.50;;;1.45;97.74
62333;BME280;48624;49.812;8.562;2023-11-25T01:49:05;100026.69;;;1.46;97.33
62333;BME280;48624;49.812;8.562;2023-11-25T01:51:31;100031.16;;;1.43;97.06
62333;BME280;48624;49.812;8.562;2023-11-25T01:53:58;100028.88;;;1.33;98.19
62333;BME280;48624;49.812;8.562;2023-11-25T01:56:25;100037.50;;;1.35;98.40
62333;BME280;48624;49.812;8.562;2023-11-25T01:58:50;100036.66;;;1.59;97.43
62333;BME280;48624;49.812;8.562;2023-11-25T02:01:16;100039.56;;;1.51;97.42
62333;BME280;48624;49.812;8.562;2023-11-25T02:03:43;100044.41;;;1.36;97.50
62333;BME280;48624;49.812;8.562;2023-11-25T02:06:08;100060.03;;;1.38;97.63
62333;BME280;48624;49.812;8.562;2023-11-25T02:08:33;100063.13;;;1.24;98.13
62333;BME280;48624;49.812;8.562;2023-11-25T02:10:58;100058.50;;;1.32;98.99
62333;BME280;48624;49.812;8.562;2023-11-25T02:13:25;100067.13;;;1.34;98.27
62333;BME280;48624;49.812;8.562;2023-11-25T02:15:51;100064.50;;;1.34;97.93
62333;BME280;48624;49.812;8.562;2023-11-25T02:18:17;100057.56;;;1.35;97.53
62333;BME280;48624;49.812;8.562;2023-11-25T02:20:43;100069.75;;;1.34;96.99
62333;BME280;48624;49.812;8.562;2023-11-25T02:23:20;100075.34;;;1.23;97.77
62333;BME280;48624;49.812;8.562;2023-11-25T02:25:48;100081.25;;;1.29;98.35
62333;BME280;48624;49.812;8.562;2023-11-25T02:28:18;100080.03;;;1.14;99.06
62333;BME280;48624;49.812;8.562;2023-11-25T02:30:47;100076.41;;;1.18;98.34
62333;BME280;48624;49.812;8.562;2023-11-25T02:33:13;100080.97;;;1.11;98.42
62333;BME280;48624;49.812;8.562;2023-11-25T02:35:42;100088.72;;;1.14;98.75
62333;BME280;48624;49.812;8.562;2023-11-25T02:38:11;100092.00;;;1.19;98.34
62333;BME280;48624;49.812;8.562;2023-11-25T02:40:37;100092.06;;;1.18;97.93
62333;BME280;48624;49.812;8.562;2023-11-25T02:43:03;100087.16;;;1.08;98.09
62333;BME280;48624;49.812;8.562;2023-11-25T02:45:29;100090.00;;;1.02;98.35
62333;BME280;48624;49.812;8.562;2023-11-25T02:47:54;100097.34;;;0.91;99.81
62333;BME280;48624;49.812;8.562;2023-11-25T02:50:20;100101.38;;;1.00;99.41
62333;BME280;48624;49.812;8.562;2023-11-25T02:52:45;100098.16;;;0.91;99.37
62333;BME280;48624;49.812;8.562;2023-11-25T02:55:11;100093.44;;;0.76;100.00
62333;BME280;48624;49.812;8.562;2023-11-25T02:57:40;100088.22;;;0.76;100.00
62333;BME280;48624;49.812;8.562;2023-11-25T03:00:10;100086.31;;;0.82;100.00
62333;BME280;48624;49.812;8.562;2023-11-25T03:02:42;100086.59;;;0.73;99.75
62333;BME280;48624;49.812;8.562;2023-11-25T03:05:09;100079.47;;;0.78;100.00
62333;BME280;48624;49.812;8.562;2023-11-25T03:07:35;100086.22;;;0.84;100.00
62333;BME280;48624;49.812;8.562;2023-11-25T03:10:01;100092.75;;;0.71;100.00
62333;BME280;48624;49.812;8.562;2023-11-25T03:12:28;100093.72;;;0.68;100.00
62333;BME280;48624;49.812;8.562;2023-11-25T03:14:53;100099.03;;;0.65;100.00
62333;BME280;48624;49.812;8.562;2023-11-25T03:17:18;100100.63;;;0.69;100.00
62333;BME280;48624;49.812;8.562;2023-11-25T03:19:45;100097.97;;;0.71;100.00
62333;BME280;48624;49.812;8.562;2023-11-25T03:22:10;100087.59;;;0.69;100.00
62333;BME280;48624;49.812;8.562;2023-11-25T03:24:35;100101.38;;;0.73;100.00
62333;BME280;48624;49.812;8.562;2023-11-25T03:27:01;100095.47;;;0.67;100.00
62333;BME280;48624;49.812;8.562;2023-11-25T03:29:27;100098.81;;;0.71;100.00
62333;BME280;48624;49.812;8.562;2023-11-25T03:31:52;100101.34;;;0.74;100.00
62333;BME280;48624;49.812;8.562;2023-11-25T03:34:18;100113.06;;;0.88;99.65
62333;BME280;48624;49.812;8.562;2023-11-25T03:36:43;100118.56;;;0.78;100.00
62333;BME280;48624;49.812;8.562;2023-11-25T03:39:09;100127.00;;;0.87;99.83
62333;BME280;48624;49.812;8.562;2023-11-25T03:41:35;100137.94;;;0.98;98.38
62333;BME280;48624;49.812;8.562;2023-11-25T03:44:00;100132.94;;;0.92;97.59
62333;BME280;48624;49.812;8.562;2023-11-25T03:46:26;100140.81;;;0.90;97.69
62333;BME280;48624;49.812;8.562;2023-11-25T03:48:52;100141.81;;;0.86;97.21
62333;BME280;48624;49.812;8.562;2023-11-25T03:51:18;100140.47;;;0.74;96.98
62333;BME280;48624;49.812;8.562;2023-11-25T03:53:43;100136.50;;;0.61;98.30
62333;BME280;48624;49.812;8.562;2023-11-25T03:56:08;100137.28;;;0.64;97.49
62333;BME280;48624;49.812;8.562;2023-11-25T03:58:34;100131.22;;;0.64;97.51
62333;BME280;48624;49.812;8.562;2023-11-25T04:00:59;100123.78;;;0.51;98.59
62333;BME280;48624;49.812;8.562;2023-11-25T04:03:24;100141.28;;;0.48;98.90
62333;BME280;48624;49.812;8.562;2023-11-25T04:05:50;100142.13;;;0.48;99.32
62333;BME280;48624;49.812;8.562;2023-11-25T04:08:15;100145.59;;;0.49;98.94
62333;BME280;48624;49.812;8.562;2023-11-25T04:10:40;100145.50;;;0.52;99.00
62333;BME280;48624;49.812;8.562;2023-11-25T04:13:06;100152.06;;;0.35;100.00
62333;BME280;48624;49.812;8.562;2023-11-25T04:15:31;100145.59;;;0.49;100.00
62333;BME280;48624;49.812;8.562;2023-11-25T04:17:56;100140.03;;;0.60;100.00
62333;BME280;48624;49.812;8.562;2023-11-25T04:20:22;100136.34;;;0.67;100.00
62333;BME280;48624;49.812;8.562;2023-11-25T04:22:53;100143.75;;;0.79;100.00
62333;BME280;48624;49.812;8.562;2023-11-25T04:25:19;100149.50;;;0.91;99.55
62333;BME280;48624;49.812;8.562;2023-11-25T04:27:46;100153.75;;;0.93;99.69
62333;BME280;48624;49.812;8.562;2023-11-25T04:30:12;100153.69;;;0.95;100.00
62333;BME280;48624;49.812;8.562;2023-11-25T04:32:40;100156.75;;;1.08;99.39
62333;BME280;48624;49.812;8.562;2023-11-25T04:35:06;100151.44;;;1.11;99.22
62333;BME280;48624;49.812;8.562;2023-11-25T04:37:35;100148.94;;;1.08;99.69
62333;BME280;48624;49.812;8.562;2023-11-25T04:40:01;100154.69;;;1.18;99.37
62333;BME280;48624;49.812;8.562;2023-11-25T04:42:30;100149.47;;;1.18;99.29
62333;BME280;48624;49.812;8.562;2023-11-25T04:44:55;100162.50;;;1.18;99.23
62333;BME280;48624;49.812;8.562;2023-11-25T04:47:21;100153.09;;;1.14;99.80
62333;BME280;48624;49.812;8.562;2023-11-25T04:49:46;100156.28;;;1.22;99.92
62333;BME280;48624;49.812;8.562;2023-11-25T04:52:12;100160.78;;;1.44;99.28
62333;BME280;48624;49.812;8.562;2023-11-25T04:54:38;100155.59;;;1.42;99.38
62333;BME280;48624;49.812;8.562;2023-11-25T04:57:04;100143.56;;;1.38;98.79
62333;BME280;48624;49.812;8.562;2023-11-25T04:59:30;100149.53;;;1.42;98.69
62333;BME280;48624;49.812;8.562;2023-11-25T05:01:55;100147.84;;;1.41;98.62
62333;BME280;48624;49.812;8.562;2023-11-25T05:04:21;100148.03;;;1.34;98.76
62333;BME280;48624;49.812;8.562;2023-11-25T05:06:46;100159.88;;;1.45;98.24
62333;BME280;48624;49.812;8.562;2023-11-25T05:09:12;100153.72;;;1.46;98.21
62333;BME280;48624;49.812;8.562;2023-11-25T05:11:42;100169.47;;;1.44;98.20
62333;BME280;48624;49.812;8.562;2023-11-25T05:14:07;100170.09;;;1.51;97.79
62333;BME280;48624;49.812;8.562;2023-11-25T05:16:33;100177.75;;;1.57;98.31
62333;BME280;48624;49.812;8.562;2023-11-25T05:18:58;100176.56;;;1.66;97.89
62333;BME280;48624;49.812;8.562;2023-11-25T05:21:23;100168.84;;;1.63;98.07
62333;BME280;48624;49.812;8.562;2023-11-25T05:23:48;100167.84;;;1.65;98.19
62333;BME280;48624;49.812;8.562;2023-11-25T05:26:15;100161.84;;;1.63;97.77
62333;BME280;48624;49.812;8.562;2023-11-25T05:28:40;100157.56;;;1.61;97.91
62333;BME280;48624;49.812;8.562;2023-11-25T05:31:05;100163.78;;;1.58;98.07
62333;BME280;48624;49.812;8.562;2023-11-25T05:33:31;100159.34;;;1.60;97.23
62333;BME280;48624;49.812;8.562;2023-11-25T05:35:58;100158.56;;;1.58;97.75
62333;BME280;48624;49.812;8.562;2023-11-25T05:38:25;100156.88;;;1.56;97.35
62333;BME280;48624;49.812;8.562;2023-11-25T05:40:50;100149.06;;;1.56;97.58
62333;BME280;48624;49.812;8.562;2023-11-25T05:43:17;100144.66;;;1.56;96.75
62333;BME280;48624;49.812;8.562;2023-11-25T05:45:44;100136.66;;;1.61;96.41
62333;BME280;48624;49.812;8.562;2023-11-25T05:48:09;100137.88;;;1.52;96.46
62333;BME280;48624;49.812;8.562;2023-11-25T05:50:35;100141.88;;;1.37;97.33
62333;BME280;48624;49.812;8.562;2023-11-25T05:53:00;100142.06;;;1.31;97.32
62333;BME280;48624;49.812;8.562;2023-11-25T05:55:25;100135.56;;;1.17;98.23
62333;BME280;48624;49.812;8.562;2023-11-25T05:57:51;100139.13;;;1.15;99.16
62333;BME280;48624;49.812;8.562;2023-11-25T06:00:18;100144.50;;;1.10;99.12
62333;BME280;48624;49.812;8.562;2023-11-25T06:02:43;100148.91;;;1.09;99.73
62333;BME280;48624;49.812;8.562;2023-11-25T06:05:08;100140.31;;;1.06;100.00
62333;BME280;48624;49.812;8.562;2023-11-25T06:07:37;100155.59;;;1.17;99.15
62333;BME280;48624;49.812;8.562;2023-11-25T06:10:03;100158.50;;;1.07;99.79
62333;BME280;48624;49.812;8.562;2023-11-25T06:12:32;100160.13;;;1.12;98.93
62333;BME280;48624;49.812;8.562;2023-11-25T06:14:57;100155.06;;;1.07;100.00
62333;BME280;48624;49.812;8.562;2023-11-25T06:17:22;100160.97;;;1.12;99.31
62333;BME280;48624;49.812;8.562;2023-11-25T06:19:50;100160.47;;;1.01;99.06
62333;BME280;48624;49.812;8.562;2023-11-25T06:22:17;100163.41;;;0.90;98.81
62333;BME280;48624;49.812;8.562;2023-11-25T06:24:43;100162.22;;;0.73;98.84
62333;BME280;48624;49.812;8.562;2023-11-25T06:27:08;100155.81;;;0.55;99.05
62333;BME280;48624;49.812;8.562;2023-11-25T06:29:33;100160.19;;;0.54;100.00
62333;BME280;48624;49.812;8.562;2023-11-25T06:31:59;100167.56;;;0.40;100.00
62333;BME280;48624;49.812;8.562;2023-11-25T06:34:24;100166.91;;;0.33;100.00
62333;BME280;48624;49.812;8.562;2023-11-25T06:36:49;100167.63;;;0.38;100.00
62333;BME280;48624;49.812;8.562;2023-11-25T06:39:15;100170.50;;;0.29;100.00
62333;BME280;48624;49.812;8.562;2023-11-25T06:41:44;100175.53;;;0.35;100.00
62333;BME280;48624;49.812;8.562;2023-11-25T06:44:16;100177.22;;;0.36;100.00
62333;BME280;48624;49.812;8.562;2023-11-25T06:46:43;100188.63;;;0.34;100.00
62333;BME280;48624;49.812;8.562;2023-11-25T06:49:08;100179.00;;;0.36;100.00
62333;BME280;48624;49.812;8.562;2023-11-25T06:51:34;100177.38;;;0.32;100.00
62333;BME280;48624;49.812;8.562;2023-11-25T06:53:59;100176.81;;;0.22;100.00
62333;BME280;48624;49.812;8.562;2023-11-25T06:56:25;100184.13;;;0.37;100.00
62333;BME280;48624;49.812;8.562;2023-11-25T06:58:50;100181.91;;;0.25;100.00
62333;BME280;48624;49.812;8.562;2023-11-25T07:01:17;100189.59;;;0.30;100.00
62333;BME280;48624;49.812;8.562;2023-11-25T07:03:47;100187.38;;;0.16;100.00
62333;BME280;48624;49.812;8.562;2023-11-25T07:06:13;100192.88;;;0.36;100.00
62333;BME280;48624;49.812;8.562;2023-11-25T07:08:39;100204.25;;;0.34;100.00
62333;BME280;48624;49.812;8.562;2023-11-25T07:11:04;100195.75;;;0.27;100.00
62333;BME280;48624;49.812;8.562;2023-11-25T07:13:35;100191.03;;;0.40;100.00
62333;BME280;48624;49.812;8.562;2023-11-25T07:16:00;100213.44;;;0.46;100.00
62333;BME280;48624;49.812;8.562;2023-11-25T07:18:27;100211.25;;;0.62;100.00
62333;BME280;48624;49.812;8.562;2023-11-25T07:20:52;100203.09;;;0.73;100.00
62333;BME280;48624;49.812;8.562;2023-11-25T07:23:18;100207.88;;;0.87;100.00
62333;BME280;48624;49.812;8.562;2023-11-25T07:25:44;100211.06;;;0.96;100.00
62333;BME280;48624;49.812;8.562;2023-11-25T07:28:11;100209.41;;;0.92;100.00
62333;BME280;48624;49.812;8.562;2023-11-25T07:30:36;100203.00;;;1.03;100.00
62333;BME280;48624;49.812;8.562;2023-11-25T07:33:02;100202.66;;;1.14;100.00
62333;BME280;48624;49.812;8.562;2023-11-25T07:35:31;100193.13;;;1.13;100.00
62333;BME280;48624;49.812;8.562;2023-11-25T07:37:56;100188.59;;;1.18;100.00
62333;BME280;48624;49.812;8.562;2023-11-25T07:40:22;100193.88;;;1.43;100.00
62333;BME280;48624;49.812;8.562;2023-11-25T07:42:47;100202.28;;;1.51;100.00
62333;BME280;48624;49.812;8.562;2023-11-25T07:45:14;100200.25;;;1.60;100.00
62333;BME280;48624;49.812;8.562;2023-11-25T07:47:40;100198.06;;;1.73;100.00
62333;BME280;48624;49.812;8.562;2023-11-25T07:50:09;100198.78;;;1.78;100.00
62333;BME280;48624;49.812;8.562;2023-11-25T07:52:35;100194.19;;;1.85;100.00
62333;BME280;48624;49.812;8.562;2023-11-25T07:55:01;100196.22;;;1.76;100.00
62333;BME280;48624;49.812;8.562;2023-11-25T07:57:26;100196.31;;;1.73;100.00
62333;BME280;48624;49.812;8.562;2023-11-25T07:59:52;100194.81;;;1.91;100.00
62333;BME280;48624;49.812;8.562;2023-11-25T08:02:17;100199.03;;;1.96;100.00
62333;BME280;48624;49.812;8.562;2023-11-25T08:04:43;100205.84;;;2.00;100.00
62333;BME280;48624;49.812;8.562;2023-11-25T08:07:10;100199.25;;;1.89;100.00
62333;BME280;48624;49.812;8.562;2023-11-25T08:09:37;100194.94;;;1.88;100.00
62333;BME280;48624;49.812;8.562;2023-11-25T08:12:03;100193.72;;;1.97;100.00
62333;BME280;48624;49.812;8.562;2023-11-25T08:14:29;100190.84;;;2.05;100.00
62333;BME280;48624;49.812;8.562;2023-11-25T08:16:55;100200.44;;;2.04;100.00
62333;BME280;48624;49.812;8.562;2023-11-25T08:19:20;100198.44;;;2.11;100.00
62333;BME280;48624;49.812;8.562;2023-11-25T08:21:49;100210.66;;;2.34;99.92
62333;BME280;48624;49.812;8.562;2023-11-25T08:24:15;100202.16;;;2.29;99.93
62333;BME280;48624;49.812;8.562;2023-11-25T08:26:43;100208.22;;;2.30;99.63
62333;BME280;48624;49.812;8.562;2023-11-25T08:29:09;100206.22;;;2.36;99.67
62333;BME280;48624;49.812;8.562;2023-11-25T08:31:36;100207.63;;;2.47;98.75
62333;BME280;48624;49.812;8.562;2023-11-25T08:34:02;100208.22;;;2.54;98.61
62333;BME280;48624;49.812;8.562;2023-11-25T08:36:35;100211.41;;;2.62;99.21
62333;BME280;48624;49.812;8.562;2023-11-25T08:39:11;100198.84;;;2.48;98.13
62333;BME280;48624;49.812;8.562;2023-11-25T08:41:39;100201.94;;;2.58;99.14
62333;BME280;48624;49.812;8.562;2023-11-25T08:44:05;100189.78;;;2.57;99.38
62333;BME280;48624;49.812;8.562;2023-11-25T08:46:31;100192.91;;;2.67;98.95
62333;BME280;48624;49.812;8.562;2023-11-25T08:48:59;100193.88;;;2.64;99.18
62333;BME280;48624;49.812;8.562;2023-11-25T08:51:26;100195.25;;;2.73;98.84
62333;BME280;48624;49.812;8.562;2023-11-25T08:53:51;100186.94;;;2.85;98.73
62333;BME280;48624;49.812;8.562;2023-11-25T08:56:19;100188.19;;;2.97;98.56
62333;BME280;48624;49.812;8.562;2023-11-25T08:58:46;100186.94;;;2.85;97.42
62333;BME280;48624;49.812;8.562;2023-11-25T09:01:11;100179.69;;;2.92;97.16
62333;BME280;48624;49.812;8.562;2023-11-25T09:03:37;100184.09;;;3.12;96.96
62333;BME280;48624;49.812;8.562;2023-11-25T09:06:02;100182.78;;;2.80;96.11
62333;BME280;48624;49.812;8.562;2023-11-25T09:08:27;100192.59;;;2.97;97.13
62333;BME280;48624;49.812;8.562;2023-11-25T09:10:53;100186.88;;;2.87;97.46
62333;BME280;48624;49.812;8.562;2023-11-25T09:13:18;100184.28;;;3.08;95.76
62333;BME280;48624;49.812;8.562;2023-11-25T09:15:43;100184.69;;;2.76;96.65
62333;BME280;48624;49.812;8.562;2023-11-25T09:18:09;100190.97;;;3.15;96.64
62333;BME280;48624;49.812;8.562;2023-11-25T09:20:35;100199.41;;;3.01;96.25
62333;BME280;48624;49.812;8.562;2023-11-25T09:23:00;100197.94;;;2.94;96.36
62333;BME280;48624;49.812;8.562;2023-11-25T09:25:26;100207.94;;;3.06;96.14
62333;BME280;48624;49.812;8.562;2023-11-25T09:27:54;100200.84;;;3.08;94.99
62333;BME280;48624;49.812;8.562;2023-11-25T09:30:19;100204.75;;;3.20;95.80
62333;BME280;48624;49.812;8.562;2023-11-25T09:32:44;100202.88;;;3.01;95.01
62333;BME280;48624;49.812;8.562;2023-11-25T09:35:11;100194.38;;;3.17;93.90
62333;BME280;48624;49.812;8.562;2023-11-25T09:37:37;100204.28;;;3.31;94.77
62333;BME280;48624;49.812;8.562;2023-11-25T09:40:03;100202.53;;;3.31;93.15
62333;BME280;48624;49.812;8.562;2023-11-25T09:42:30;100205.28;;;3.28;93.58
62333;BME280;48624;49.812;8.562;2023-11-25T09:45:12;100197.53;;;3.25;93.64
62333;BME280;48624;49.812;8.562;2023-11-25T09:47:42;100197.72;;;3.21;94.51
62333;BME280;48624;49.812;8.562;2023-11-25T09:50:10;100200.06;;;3.49;92.92
62333;BME280;48624;49.812;8.562;2023-11-25T09:52:43;100195.41;;;3.35;92.57
62333;BME280;48624;49.812;8.562;2023-11-25T09:55:13;100199.78;;;3.35;93.29
62333;BME280;48624;49.812;8.562;2023-11-25T09:57:45;100182.84;;;3.43;92.57
62333;BME280;48624;49.812;8.562;2023-11-25T10:00:12;100179.09;;;3.70;92.47
62333;BME280;48624;49.812;8.562;2023-11-25T10:02:43;100186.38;;;3.63;92.90
62333;BME280;48624;49.812;8.562;2023-11-25T10:05:09;100173.38;;;3.60;92.47
62333;BME280;48624;49.812;8.562;2023-11-25T10:07:36;100168.22;;;3.58;94.75
62333;BME280;48624;49.812;8.562;2023-11-25T10:10:02;100171.63;;;3.40;95.77
62333;BME280;48624;49.812;8.562;2023-11-25T10:12:29;100175.50;;;3.72;94.98
62333;BME280;48624;49.812;8.562;2023-11-25T10:14:55;100167.31;;;3.59;94.77
62333;BME280;48624;49.812;8.562;2023-11-25T10:17:24;100162.06;;;3.59;95.23
62333;BME280;48624;49.812;8.562;2023-11-25T10:20:03;100166.91;;;3.69;95.16
62333;BME280;48624;49.812;8.562;2023-11-25T10:22:43;100161.81;;;3.66;95.13
62333;BME280;48624;49.812;8.562;2023-11-25T10:25:09;100163.56;;;3.65;96.42
62333;BME280;48624;49.812;8.562;2023-11-25T10:27:36;100154.75;;;3.87;94.18
62333;BME280;48624;49.812;8.562;2023-11-25T10:30:02;100152.59;;;3.97;93.15
62333;BME280;48624;49.812;8.562;2023-11-25T10:32:29;100154.53;;;3.92;94.53
62333;BME280;48624;49.812;8.562;2023-11-25T10:34:55;100156.75;;;4.01;94.66
62333;BME280;48624;49.812;8.562;2023-11-25T10:37:22;100147.75;;;4.07;94.42
62333;BME280;48624;49.812;8.562;2023-11-25T10:39:51;100144.38;;;4.24;94.50
62333;BME280;48624;49.812;8.562;2023-11-25T10:42:16;100139.88;;;4.45;93.95
62333;BME280;48624;49.812;8.562;2023-11-25T10:44:42;100132.03;;;4.82;91.84
62333;BME280;48624;49.812;8.562;2023-11-25T10:47:08;100129.41;;;4.82;91.60
62333;BME280;48624;49.812;8.562;2023-11-25T10:49:53;100133.97;;;5.13;90.73
62333;BME280;48624;49.812;8.562;2023-11-25T10:52:19;100129.56;;;5.14;90.16
62333;BME280;48624;49.812;8.562;2023-11-25T10:54:48;100125.44;;;4.91;90.87
62333;BME280;48624;49.812;8.562;2023-11-25T10:57:15;100117.66;;;5.07;90.57
62333;BME280;48624;49.812;8.562;2023-11-25T10:59:42;100118.44;;;5.09;90.93
62333;BME280;48624;49.812;8.562;2023-11-25T11:02:35;100117.44;;;4.94;90.79
62333;BME280;48624;49.812;8.562;2023-11-25T11:05:06;100105.00;;;4.97;89.79
62333;BME280;48624;49.812;8.562;2023-11-25T11:07:37;100100.13;;;4.90;90.32
62333;BME280;48624;49.812;8.562;2023-11-25T11:10:05;100105.31;;;4.91;90.84
62333;BME280;48624;49.812;8.562;2023-11-25T11:12:42;100103.88;;;4.66;91.07
62333;BME280;48624;49.812;8.562;2023-11-25T11:15:12;100104.22;;;4.78;91.11
62333;BME280;48624;49.812;8.562;2023-11-25T11:17:47;100100.66;;;4.79;91.38
62333;BME280;48624;49.812;8.562;2023-11-25T11:20:17;100094.28;;;4.84;91.90
62333;BME280;48624;49.812;8.562;2023-11-25T11:22:44;100089.25;;;4.80;91.88
62333;BME280;48624;49.812;8.562;2023-11-25T11:27:42;100086.72;;;4.96;91.10
62333;BME280;48624;49.812;8.562;2023-11-25T11:30:15;100082.91;;;4.84;93.36
62333;BME280;48624;49.812;8.562;2023-11-25T11:32:45;100069.97;;;4.98;91.93
62333;BME280;48624;49.812;8.562;2023-11-25T11:35:11;100076.81;;;5.19;92.15
62333;BME280;48624;49.812;8.562;2023-11-25T11:37:38;100071.94;;;5.11;92.77
62333;BME280;48624;49.812;8.562;2023-11-25T11:40:12;100074.09;;;5.20;92.57
62333;BME280;48624;49.812;8.562;2023-11-25T11:42:37;100067.19;;;5.35;91.80
62333;BME280;48624;49.812;8.562;2023-11-25T11:45:11;100069.50;;;5.08;92.61
62333;BME280;48624;49.812;8.562;2023-11-25T11:47:52;100061.56;;;5.25;91.72
62333;BME280;48624;49.812;8.562;2023-11-25T11:50:23;100060.28;;;5.17;92.03
62333;BME280;48624;49.812;8.562;2023-11-25T11:55:56;100061.84;;;5.03;93.38
62333;BME280;48624;49.812;8.562;2023-11-25T11:58:24;100052.88;;;4.90;94.09
62333;BME280;48624;49.812;8.562;2023-11-25T12:03:32;100048.97;;;4.98;93.13
62333;BME280;48624;49.812;8.562;2023-11-25T12:05:57;100054.09;;;4.82;92.94
62333;BME280;48624;49.812;8.562;2023-11-25T12:08:24;100041.59;;;5.05;92.49
62333;BME280;48624;49.812;8.562;2023-11-25T12:10:50;100036.06;;;4.94;93.40
62333;BME280;48624;49.812;8.562;2023-11-25T12:13:26;100028.31;;;5.08;92.87
62333;BME280;48624;49.812;8.562;2023-11-25T12:15:53;100028.78;;;4.99;92.95
62333;BME280;48624;49.812;8.562;2023-11-25T12:18:19;100037.91;;;4.92;94.62
62333;BME280;48624;49.812;8.562;2023-11-25T12:20:45;100039.06;;;4.86;95.71
62333;BME280;48624;49.812;8.562;2023-11-25T12:23:12;100033.56;;;4.91;94.85
62333;BME280;48624;49.812;8.562;2023-11-25T12:25:37;100036.44;;;4.68;97.16
62333;BME280;48624;49.812;8.562;2023-11-25T12:28:10;100026.28;;;4.80;95.43
62333;BME280;48624;49.812;8.562;2023-11-25T12:30:37;100023.31;;;4.68;95.11
62333;BME280;48624;49.812;8.562;2023-11-25T12:33:04;100019.97;;;5.00;93.50
62333;BME280;48624;49.812;8.562;2023-11-25T12:35:32;100016.53;;;4.82;95.02
62333;BME280;48624;49.812;8.562;2023-11-25T12:37:59;100005.34;;;4.78;96.16
62333;BME280;48624;49.812;8.562;2023-11-25T12:40:25;100016.59;;;4.98;95.50
62333;BME280;48624;49.812;8.562;2023-11-25T12:42:52;100007.06;;;5.13;94.39
62333;BME280;48624;49.812;8.562;2023-11-25T12:45:31;100008.38;;;5.22;93.91
62333;BME280;48624;49.812;8.562;2023-11-25T12:47:57;100002.34;;;5.36;91.93
62333;BME280;48624;49.812;8.562;2023-11-25T12:50:23;100006.97;;;5.32;92.59
62333;BME280;48624;49.812;8.562;2023-11-25T12:53:11;100005.34;;;5.30;93.03
62333;BME280;48624;49.812;8.562;2023-11-25T12:55:43;100004.09;;;5.37;93.12
62333;BME280;48624;49.812;8.562;2023-11-25T12:58:11;100010.41;;;5.33;91.69
62333;BME280;48624;49.812;8.562;2023-11-25T13:00:52;99999.72;;;5.20;92.07
62333;BME280;48624;49.812;8.562;2023-11-25T13:03:24;100001.94;;;5.27;91.78
62333;BME280;48624;49.812;8.562;2023-11-25T13:06:06;100010.84;;;5.25;92.66
62333;BME280;48624;49.812;8.562;2023-11-25T13:08:35;99990.50;;;4.95;94.95